sensor_id;sensor_type;location;lat;lon;timestamp;P1;durP1;ratioP1;P2;durP2;ratioP2
14205;SDS011;7186;48.800;9.216;2023-05-16T00:01:23;12.10;;;8.57;;
14205;SDS011;7186;48.800;9.216;2023-05-16T00:03:48;10.47;;;9.07;;
14205;SDS011;7186;48.800;9.216;2023-05-16T00:06:14;11.27;;;8.37;;
14205;SDS011;7186;48.800;9.216;2023-05-16T00:08:39;9.77;;;8.10;;
14205;SDS011;7186;48.800;9.216;2023-05-16T00:11:05;14.40;;;9.37;;
14205;SDS011;7186;48.800;9.216;2023-05-16T00:13:30;9.73;;;8.40;;
14205;SDS011;7186;48.800;9.216;2023-05-16T00:15:55;13.93;;;8.47;;
14205;SDS011;7186;48.800;9.216;2023-05-16T00:18:21;12.80;;;8.30;;
14205;SDS011;7186;48.800;9.216;2023-05-16T00:20:47;11.13;;;8.70;;
14205;SDS011;7186;48.800;9.216;2023-05-16T00:23:13;11.27;;;8.20;;
14205;SDS011;7186;48.800;9.216;2023-05-16T00:25:38;9.90;;;8.37;;
14205;SDS011;7186;48.800;9.216;2023-05-16T00:28:03;12.20;;;8.83;;
14205;SDS011;7186;48.800;9.216;2023-05-16T00:30:28;10.33;;;8.20;;
14205;SDS011;7186;48.800;9.216;2023-05-16T00:32:54;10.67;;;8.30;;
14205;SDS011;7186;48.800;9.216;2023-05-16T00:35:20;10.07;;;8.13;;
14205;SDS011;7186;48.800;9.216;2023-05-16T00:37:45;13.13;;;9.13;;
14205;SDS011;7186;48.800;9.216;2023-05-16T00:40:10;10.83;;;8.60;;
14205;SDS011;7186;48.800;9.216;2023-05-16T00:42:37;11.30;;;8.60;;
14205;SDS011;7186;48.800;9.216;2023-05-16T00:45:02;11.87;;;8.37;;
14205;SDS011;7186;48.800;9.216;2023-05-16T00:47:28;9.60;;;8.27;;
14205;SDS011;7186;48.800;9.216;2023-05-16T00:49:53;10.93;;;8.40;;
14205;SDS011;7186;48.800;9.216;2023-05-16T00:52:19;12.27;;;9.40;;
14205;SDS011;7186;48.800;9.216;2023-05-16T00:54:44;12.30;;;10.03;;
14205;SDS011;7186;48.800;9.216;2023-05-16T00:57:09;10.27;;;8.90;;
14205;SDS011;7186;48.800;9.216;2023-05-16T00:59:35;15.03;;;9.73;;
14205;SDS011;7186;48.800;9.216;2023-05-16T01:02:01;10.00;;;7.97;;
14205;SDS011;7186;48.800;9.216;2023-05-16T01:04:26;9.90;;;8.87;;
14205;SDS011;7186;48.800;9.216;2023-05-16T01:06:52;14.03;;;10.00;;
14205;SDS011;7186;48.800;9.216;2023-05-16T01:09:17;15.83;;;9.00;;
14205;SDS011;7186;48.800;9.216;2023-05-16T01:11:50;11.93;;;9.70;;
14205;SDS011;7186;48.800;9.216;2023-05-16T01:14:18;17.63;;;9.53;;
14205;SDS011;7186;48.800;9.216;2023-05-16T01:19:23;11.97;;;9.80;;
14205;SDS011;7186;48.800;9.216;2023-05-16T01:22:02;16.50;;;13.40;;
14205;SDS011;7186;48.800;9.216;2023-05-16T01:24:43;18.10;;;13.27;;
14205;SDS011;7186;48.800;9.216;2023-05-16T01:27:15;17.63;;;13.43;;
14205;SDS011;7186;48.800;9.216;2023-05-16T01:29:40;18.23;;;13.63;;
14205;SDS011;7186;48.800;9.216;2023-05-16T01:32:06;18.87;;;14.27;;
14205;SDS011;7186;48.800;9.216;2023-05-16T01:34:31;18.23;;;14.00;;
14205;SDS011;7186;48.800;9.216;2023-05-16T01:37:03;18.30;;;14.27;;
14205;SDS011;7186;48.800;9.216;2023-05-16T01:39:47;23.17;;;16.63;;
14205;SDS011;7186;48.800;9.216;2023-05-16T01:42:15;23.47;;;17.23;;
14205;SDS011;7186;48.800;9.216;2023-05-16T01:44:52;28.03;;;19.47;;
14205;SDS011;7186;48.800;9.216;2023-05-16T01:47:19;25.00;;;17.37;;
14205;SDS011;7186;48.800;9.216;2023-05-16T01:52:34;24.93;;;17.77;;
14205;SDS011;7186;48.800;9.216;2023-05-16T01:55:02;25.93;;;17.83;;
14205;SDS011;7186;48.800;9.216;2023-05-16T01:57:28;28.33;;;20.20;;
14205;SDS011;7186;48.800;9.216;2023-05-16T01:59:56;29.73;;;19.60;;
14205;SDS011;7186;48.800;9.216;2023-05-16T02:02:21;28.83;;;20.60;;
14205;SDS011;7186;48.800;9.216;2023-05-16T02:04:46;30.00;;;20.27;;
14205;SDS011;7186;48.800;9.216;2023-05-16T02:07:12;31.77;;;20.97;;
14205;SDS011;7186;48.800;9.216;2023-05-16T02:09:39;29.10;;;20.27;;
14205;SDS011;7186;48.800;9.216;2023-05-16T02:12:04;30.87;;;20.73;;
14205;SDS011;7186;48.800;9.216;2023-05-16T02:14:29;37.30;;;22.60;;
14205;SDS011;7186;48.800;9.216;2023-05-16T02:16:54;29.73;;;20.20;;
14205;SDS011;7186;48.800;9.216;2023-05-16T02:19:19;33.00;;;22.47;;
14205;SDS011;7186;48.800;9.216;2023-05-16T02:21:45;33.80;;;21.53;;
14205;SDS011;7186;48.800;9.216;2023-05-16T02:24:10;35.27;;;23.07;;
14205;SDS011;7186;48.800;9.216;2023-05-16T02:26:35;37.83;;;21.53;;
14205;SDS011;7186;48.800;9.216;2023-05-16T02:29:01;31.87;;;22.53;;
14205;SDS011;7186;48.800;9.216;2023-05-16T02:33:51;35.30;;;23.57;;
14205;SDS011;7186;48.800;9.216;2023-05-16T02:36:16;32.83;;;22.70;;
14205;SDS011;7186;48.800;9.216;2023-05-16T02:38:41;39.17;;;24.00;;
14205;SDS011;7186;48.800;9.216;2023-05-16T02:41:07;36.23;;;23.20;;
14205;SDS011;7186;48.800;9.216;2023-05-16T02:43:32;33.37;;;22.47;;
14205;SDS011;7186;48.800;9.216;2023-05-16T02:45:57;34.90;;;23.30;;
14205;SDS011;7186;48.800;9.216;2023-05-16T02:48:22;33.83;;;23.83;;
14205;SDS011;7186;48.800;9.216;2023-05-16T02:50:47;33.03;;;23.43;;
14205;SDS011;7186;48.800;9.216;2023-05-16T02:53:13;42.90;;;23.87;;
14205;SDS011;7186;48.800;9.216;2023-05-16T02:55:38;34.70;;;23.27;;
14205;SDS011;7186;48.800;9.216;2023-05-16T02:58:03;35.27;;;24.83;;
14205;SDS011;7186;48.800;9.216;2023-05-16T03:00:29;34.60;;;23.70;;
14205;SDS011;7186;48.800;9.216;2023-05-16T03:02:54;37.50;;;23.80;;
14205;SDS011;7186;48.800;9.216;2023-05-16T03:05:19;38.13;;;25.13;;
14205;SDS011;7186;48.800;9.216;2023-05-16T03:07:44;36.10;;;23.93;;
14205;SDS011;7186;48.800;9.216;2023-05-16T03:10:10;36.27;;;23.17;;
14205;SDS011;7186;48.800;9.216;2023-05-16T03:12:35;38.07;;;24.70;;
14205;SDS011;7186;48.800;9.216;2023-05-16T03:15:00;38.73;;;25.23;;
14205;SDS011;7186;48.800;9.216;2023-05-16T03:17:29;42.80;;;26.70;;
14205;SDS011;7186;48.800;9.216;2023-05-16T03:19:55;42.43;;;26.27;;
14205;SDS011;7186;48.800;9.216;2023-05-16T03:22:20;36.97;;;22.87;;
14205;SDS011;7186;48.800;9.216;2023-05-16T03:24:45;42.23;;;25.60;;
14205;SDS011;7186;48.800;9.216;2023-05-16T03:27:11;37.43;;;24.47;;
14205;SDS011;7186;48.800;9.216;2023-05-16T03:29:36;38.77;;;25.37;;
14205;SDS011;7186;48.800;9.216;2023-05-16T03:32:01;41.20;;;25.43;;
14205;SDS011;7186;48.800;9.216;2023-05-16T03:34:26;42.93;;;26.53;;
14205;SDS011;7186;48.800;9.216;2023-05-16T03:36:52;48.83;;;27.67;;
14205;SDS011;7186;48.800;9.216;2023-05-16T03:39:17;44.10;;;27.47;;
14205;SDS011;7186;48.800;9.216;2023-05-16T03:41:42;48.70;;;29.10;;
14205;SDS011;7186;48.800;9.216;2023-05-16T03:44:08;47.60;;;27.97;;
14205;SDS011;7186;48.800;9.216;2023-05-16T03:46:33;54.53;;;29.27;;
14205;SDS011;7186;48.800;9.216;2023-05-16T03:48:59;47.70;;;27.83;;
14205;SDS011;7186;48.800;9.216;2023-05-16T03:51:24;46.93;;;27.83;;
14205;SDS011;7186;48.800;9.216;2023-05-16T03:53:50;47.17;;;27.37;;
14205;SDS011;7186;48.800;9.216;2023-05-16T03:56:15;52.33;;;30.63;;
14205;SDS011;7186;48.800;9.216;2023-05-16T03:58:40;50.63;;;28.57;;
14205;SDS011;7186;48.800;9.216;2023-05-16T04:01:05;44.43;;;28.50;;
14205;SDS011;7186;48.800;9.216;2023-05-16T04:03:31;50.77;;;28.53;;
14205;SDS011;7186;48.800;9.216;2023-05-16T04:05:57;56.27;;;30.80;;
14205;SDS011;7186;48.800;9.216;2023-05-16T04:08:22;50.97;;;29.67;;
14205;SDS011;7186;48.800;9.216;2023-05-16T04:10:47;52.93;;;30.47;;
14205;SDS011;7186;48.800;9.216;2023-05-16T04:13:13;54.27;;;30.03;;
14205;SDS011;7186;48.800;9.216;2023-05-16T04:15:39;48.23;;;29.43;;
14205;SDS011;7186;48.800;9.216;2023-05-16T04:18:04;52.60;;;31.67;;
14205;SDS011;7186;48.800;9.216;2023-05-16T04:20:29;53.50;;;30.83;;
14205;SDS011;7186;48.800;9.216;2023-05-16T04:22:55;52.87;;;29.73;;
14205;SDS011;7186;48.800;9.216;2023-05-16T04:25:20;52.30;;;30.93;;
14205;SDS011;7186;48.800;9.216;2023-05-16T04:27:45;50.83;;;29.87;;
14205;SDS011;7186;48.800;9.216;2023-05-16T04:30:10;52.90;;;30.17;;
14205;SDS011;7186;48.800;9.216;2023-05-16T04:32:36;56.87;;;32.30;;
14205;SDS011;7186;48.800;9.216;2023-05-16T04:35:01;54.43;;;32.00;;
14205;SDS011;7186;48.800;9.216;2023-05-16T04:37:26;57.47;;;32.10;;
14205;SDS011;7186;48.800;9.216;2023-05-16T04:39:52;52.13;;;31.43;;
14205;SDS011;7186;48.800;9.216;2023-05-16T04:42:18;52.87;;;29.60;;
14205;SDS011;7186;48.800;9.216;2023-05-16T04:44:43;56.40;;;31.57;;
14205;SDS011;7186;48.800;9.216;2023-05-16T04:47:08;56.97;;;32.33;;
14205;SDS011;7186;48.800;9.216;2023-05-16T04:49:34;57.47;;;31.93;;
14205;SDS011;7186;48.800;9.216;2023-05-16T04:51:59;51.47;;;30.67;;
14205;SDS011;7186;48.800;9.216;2023-05-16T04:54:24;49.17;;;29.30;;
14205;SDS011;7186;48.800;9.216;2023-05-16T04:56:50;50.53;;;29.33;;
14205;SDS011;7186;48.800;9.216;2023-05-16T04:59:15;56.17;;;30.23;;
14205;SDS011;7186;48.800;9.216;2023-05-16T05:01:40;48.80;;;29.50;;
14205;SDS011;7186;48.800;9.216;2023-05-16T05:04:06;55.63;;;30.17;;
14205;SDS011;7186;48.800;9.216;2023-05-16T05:06:31;52.63;;;29.77;;
14205;SDS011;7186;48.800;9.216;2023-05-16T05:08:56;54.30;;;30.07;;
14205;SDS011;7186;48.800;9.216;2023-05-16T05:11:21;50.67;;;29.83;;
14205;SDS011;7186;48.800;9.216;2023-05-16T05:13:47;53.13;;;29.67;;
14205;SDS011;7186;48.800;9.216;2023-05-16T05:16:13;54.37;;;30.73;;
14205;SDS011;7186;48.800;9.216;2023-05-16T05:18:38;51.77;;;29.90;;
14205;SDS011;7186;48.800;9.216;2023-05-16T05:21:03;53.23;;;30.17;;
14205;SDS011;7186;48.800;9.216;2023-05-16T05:23:29;55.17;;;29.80;;
14205;SDS011;7186;48.800;9.216;2023-05-16T05:25:54;51.23;;;28.47;;
14205;SDS011;7186;48.800;9.216;2023-05-16T05:28:20;52.43;;;29.40;;
14205;SDS011;7186;48.800;9.216;2023-05-16T05:30:45;49.83;;;29.17;;
14205;SDS011;7186;48.800;9.216;2023-05-16T05:33:13;49.07;;;27.87;;
14205;SDS011;7186;48.800;9.216;2023-05-16T05:35:38;50.03;;;29.40;;
14205;SDS011;7186;48.800;9.216;2023-05-16T05:38:03;50.50;;;29.00;;
14205;SDS011;7186;48.800;9.216;2023-05-16T05:40:28;51.23;;;30.57;;
14205;SDS011;7186;48.800;9.216;2023-05-16T05:42:54;48.47;;;29.33;;
14205;SDS011;7186;48.800;9.216;2023-05-16T05:45:19;51.93;;;29.83;;
14205;SDS011;7186;48.800;9.216;2023-05-16T05:47:44;51.90;;;29.53;;
14205;SDS011;7186;48.800;9.216;2023-05-16T05:50:10;51.00;;;29.50;;
14205;SDS011;7186;48.800;9.216;2023-05-16T05:52:35;55.10;;;31.07;;
14205;SDS011;7186;48.800;9.216;2023-05-16T05:55:00;52.77;;;28.97;;
14205;SDS011;7186;48.800;9.216;2023-05-16T05:57:26;50.33;;;29.93;;
14205;SDS011;7186;48.800;9.216;2023-05-16T05:59:51;48.37;;;29.20;;
14205;SDS011;7186;48.800;9.216;2023-05-16T06:02:17;48.93;;;29.37;;
14205;SDS011;7186;48.800;9.216;2023-05-16T06:04:42;45.63;;;28.20;;
14205;SDS011;7186;48.800;9.216;2023-05-16T06:07:09;47.77;;;28.10;;
14205;SDS011;7186;48.800;9.216;2023-05-16T06:09:34;42.60;;;27.23;;
14205;SDS011;7186;48.800;9.216;2023-05-16T06:11:59;46.73;;;28.03;;
14205;SDS011;7186;48.800;9.216;2023-05-16T06:14:24;42.17;;;27.27;;
14205;SDS011;7186;48.800;9.216;2023-05-16T06:16:50;43.07;;;26.67;;
14205;SDS011;7186;48.800;9.216;2023-05-16T06:19:15;41.07;;;24.63;;
14205;SDS011;7186;48.800;9.216;2023-05-16T06:21:40;48.57;;;26.33;;
14205;SDS011;7186;48.800;9.216;2023-05-16T06:24:06;44.40;;;26.67;;
14205;SDS011;7186;48.800;9.216;2023-05-16T06:26:32;45.00;;;27.23;;
14205;SDS011;7186;48.800;9.216;2023-05-16T06:28:57;46.33;;;28.17;;
14205;SDS011;7186;48.800;9.216;2023-05-16T06:31:22;47.93;;;26.90;;
14205;SDS011;7186;48.800;9.216;2023-05-16T06:33:48;44.63;;;25.67;;
14205;SDS011;7186;48.800;9.216;2023-05-16T06:36:13;43.40;;;25.70;;
14205;SDS011;7186;48.800;9.216;2023-05-16T06:38:38;46.83;;;26.43;;
14205;SDS011;7186;48.800;9.216;2023-05-16T06:41:03;40.93;;;25.57;;
14205;SDS011;7186;48.800;9.216;2023-05-16T06:43:29;40.27;;;24.63;;
14205;SDS011;7186;48.800;9.216;2023-05-16T06:45:54;42.17;;;24.33;;
14205;SDS011;7186;48.800;9.216;2023-05-16T06:48:19;40.37;;;25.13;;
14205;SDS011;7186;48.800;9.216;2023-05-16T06:50:48;40.57;;;25.53;;
14205;SDS011;7186;48.800;9.216;2023-05-16T06:53:13;38.90;;;24.10;;
14205;SDS011;7186;48.800;9.216;2023-05-16T06:55:38;37.53;;;24.23;;
14205;SDS011;7186;48.800;9.216;2023-05-16T06:58:03;35.87;;;23.67;;
14205;SDS011;7186;48.800;9.216;2023-05-16T07:00:29;37.97;;;24.40;;
14205;SDS011;7186;48.800;9.216;2023-05-16T07:02:54;39.17;;;25.27;;
14205;SDS011;7186;48.800;9.216;2023-05-16T07:05:19;37.50;;;23.43;;
14205;SDS011;7186;48.800;9.216;2023-05-16T07:07:44;44.00;;;23.83;;
14205;SDS011;7186;48.800;9.216;2023-05-16T07:10:10;35.63;;;22.47;;
14205;SDS011;7186;48.800;9.216;2023-05-16T07:12:36;33.83;;;21.30;;
14205;SDS011;7186;48.800;9.216;2023-05-16T07:15:04;32.23;;;21.10;;
14205;SDS011;7186;48.800;9.216;2023-05-16T07:17:29;40.37;;;20.53;;
14205;SDS011;7186;48.800;9.216;2023-05-16T07:19:55;37.97;;;21.87;;
14205;SDS011;7186;48.800;9.216;2023-05-16T07:22:21;34.63;;;21.40;;
14205;SDS011;7186;48.800;9.216;2023-05-16T07:24:46;34.30;;;20.20;;
14205;SDS011;7186;48.800;9.216;2023-05-16T07:27:11;32.37;;;18.53;;
14205;SDS011;7186;48.800;9.216;2023-05-16T07:29:37;29.23;;;18.43;;
14205;SDS011;7186;48.800;9.216;2023-05-16T07:32:02;23.77;;;15.60;;
14205;SDS011;7186;48.800;9.216;2023-05-16T07:34:28;22.80;;;15.50;;
14205;SDS011;7186;48.800;9.216;2023-05-16T07:36:53;23.23;;;14.70;;
14205;SDS011;7186;48.800;9.216;2023-05-16T07:39:18;20.37;;;14.13;;
14205;SDS011;7186;48.800;9.216;2023-05-16T07:41:43;22.37;;;13.77;;
14205;SDS011;7186;48.800;9.216;2023-05-16T07:44:08;18.27;;;13.07;;
14205;SDS011;7186;48.800;9.216;2023-05-16T07:46:34;18.40;;;12.70;;
14205;SDS011;7186;48.800;9.216;2023-05-16T07:48:59;15.63;;;12.77;;
14205;SDS011;7186;48.800;9.216;2023-05-16T07:51:25;16.07;;;11.97;;
14205;SDS011;7186;48.800;9.216;2023-05-16T07:53:50;15.97;;;12.37;;
14205;SDS011;7186;48.800;9.216;2023-05-16T07:56:16;14.80;;;11.77;;
14205;SDS011;7186;48.800;9.216;2023-05-16T07:58:41;19.23;;;12.57;;
14205;SDS011;7186;48.800;9.216;2023-05-16T08:01:06;17.27;;;12.10;;
14205;SDS011;7186;48.800;9.216;2023-05-16T08:03:31;13.63;;;11.57;;
14205;SDS011;7186;48.800;9.216;2023-05-16T08:05:57;18.93;;;12.50;;
14205;SDS011;7186;48.800;9.216;2023-05-16T08:08:22;14.73;;;11.70;;
14205;SDS011;7186;48.800;9.216;2023-05-16T08:10:47;15.03;;;12.23;;
14205;SDS011;7186;48.800;9.216;2023-05-16T08:13:12;17.27;;;11.70;;
14205;SDS011;7186;48.800;9.216;2023-05-16T08:15:37;13.87;;;10.30;;
14205;SDS011;7186;48.800;9.216;2023-05-16T08:18:03;14.93;;;10.37;;
14205;SDS011;7186;48.800;9.216;2023-05-16T08:20:30;14.00;;;10.77;;
14205;SDS011;7186;48.800;9.216;2023-05-16T08:22:56;15.33;;;11.67;;
14205;SDS011;7186;48.800;9.216;2023-05-16T08:25:21;12.20;;;10.00;;
14205;SDS011;7186;48.800;9.216;2023-05-16T08:27:47;13.90;;;10.53;;
14205;SDS011;7186;48.800;9.216;2023-05-16T08:30:12;12.67;;;10.30;;
14205;SDS011;7186;48.800;9.216;2023-05-16T08:32:38;15.70;;;11.37;;
14205;SDS011;7186;48.800;9.216;2023-05-16T08:35:03;15.20;;;11.07;;
14205;SDS011;7186;48.800;9.216;2023-05-16T08:37:29;13.87;;;11.27;;
14205;SDS011;7186;48.800;9.216;2023-05-16T08:39:54;18.33;;;12.00;;
14205;SDS011;7186;48.800;9.216;2023-05-16T08:42:19;17.40;;;11.20;;
14205;SDS011;7186;48.800;9.216;2023-05-16T08:44:45;18.73;;;12.97;;
14205;SDS011;7186;48.800;9.216;2023-05-16T08:47:11;17.57;;;13.20;;
14205;SDS011;7186;48.800;9.216;2023-05-16T08:49:39;19.30;;;14.43;;
14205;SDS011;7186;48.800;9.216;2023-05-16T08:52:05;20.07;;;13.00;;
14205;SDS011;7186;48.800;9.216;2023-05-16T08:54:32;18.13;;;13.53;;
14205;SDS011;7186;48.800;9.216;2023-05-16T08:56:57;20.07;;;13.97;;
14205;SDS011;7186;48.800;9.216;2023-05-16T08:59:23;21.47;;;14.77;;
14205;SDS011;7186;48.800;9.216;2023-05-16T09:01:48;20.03;;;14.23;;
14205;SDS011;7186;48.800;9.216;2023-05-16T09:04:14;23.50;;;15.43;;
14205;SDS011;7186;48.800;9.216;2023-05-16T09:06:39;20.57;;;14.83;;
14205;SDS011;7186;48.800;9.216;2023-05-16T09:09:05;23.27;;;15.93;;
14205;SDS011;7186;48.800;9.216;2023-05-16T09:11:33;26.57;;;15.57;;
14205;SDS011;7186;48.800;9.216;2023-05-16T09:13:59;21.97;;;16.10;;
14205;SDS011;7186;48.800;9.216;2023-05-16T09:16:24;22.67;;;15.83;;
14205;SDS011;7186;48.800;9.216;2023-05-16T09:18:57;22.13;;;14.80;;
14205;SDS011;7186;48.800;9.216;2023-05-16T09:21:25;24.50;;;15.87;;
14205;SDS011;7186;48.800;9.216;2023-05-16T09:23:51;25.80;;;16.10;;
14205;SDS011;7186;48.800;9.216;2023-05-16T09:26:17;24.23;;;15.60;;
14205;SDS011;7186;48.800;9.216;2023-05-16T09:28:42;24.37;;;16.63;;
14205;SDS011;7186;48.800;9.216;2023-05-16T09:33:45;22.83;;;15.90;;
14205;SDS011;7186;48.800;9.216;2023-05-16T09:36:10;24.33;;;16.67;;
14205;SDS011;7186;48.800;9.216;2023-05-16T09:38:36;29.53;;;17.30;;
14205;SDS011;7186;48.800;9.216;2023-05-16T09:41:01;25.60;;;16.83;;
14205;SDS011;7186;48.800;9.216;2023-05-16T09:43:27;26.57;;;17.70;;
14205;SDS011;7186;48.800;9.216;2023-05-16T09:45:52;25.70;;;17.33;;
14205;SDS011;7186;48.800;9.216;2023-05-16T09:48:18;26.00;;;17.20;;
14205;SDS011;7186;48.800;9.216;2023-05-16T09:50:51;29.33;;;18.33;;
14205;SDS011;7186;48.800;9.216;2023-05-16T09:53:27;26.27;;;17.67;;
14205;SDS011;7186;48.800;9.216;2023-05-16T09:56:06;26.80;;;17.83;;
14205;SDS011;7186;48.800;9.216;2023-05-16T09:58:33;25.50;;;16.63;;
14205;SDS011;7186;48.800;9.216;2023-05-16T10:00:59;26.87;;;16.13;;
14205;SDS011;7186;48.800;9.216;2023-05-16T10:03:25;26.63;;;17.47;;
14205;SDS011;7186;48.800;9.216;2023-05-16T10:05:51;24.83;;;17.70;;
14205;SDS011;7186;48.800;9.216;2023-05-16T10:08:17;29.73;;;18.67;;
14205;SDS011;7186;48.800;9.216;2023-05-16T10:10:43;27.97;;;17.67;;
14205;SDS011;7186;48.800;9.216;2023-05-16T10:13:09;27.77;;;17.40;;
14205;SDS011;7186;48.800;9.216;2023-05-16T10:15:36;29.30;;;17.97;;
14205;SDS011;7186;48.800;9.216;2023-05-16T10:18:02;28.40;;;18.33;;
14205;SDS011;7186;48.800;9.216;2023-05-16T10:20:27;24.83;;;16.87;;
14205;SDS011;7186;48.800;9.216;2023-05-16T10:22:54;26.47;;;17.87;;
14205;SDS011;7186;48.800;9.216;2023-05-16T10:27:44;26.33;;;17.07;;
14205;SDS011;7186;48.800;9.216;2023-05-16T10:30:11;25.60;;;17.07;;
14205;SDS011;7186;48.800;9.216;2023-05-16T10:32:36;23.60;;;15.83;;
14205;SDS011;7186;48.800;9.216;2023-05-16T10:35:02;30.67;;;17.17;;
14205;SDS011;7186;48.800;9.216;2023-05-16T10:37:29;23.20;;;15.87;;
14205;SDS011;7186;48.800;9.216;2023-05-16T10:39:55;25.70;;;17.20;;
14205;SDS011;7186;48.800;9.216;2023-05-16T10:42:21;26.90;;;17.10;;
14205;SDS011;7186;48.800;9.216;2023-05-16T10:44:46;24.30;;;16.70;;
14205;SDS011;7186;48.800;9.216;2023-05-16T10:47:11;27.57;;;18.13;;
14205;SDS011;7186;48.800;9.216;2023-05-16T10:49:39;24.00;;;16.53;;
14205;SDS011;7186;48.800;9.216;2023-05-16T10:52:06;22.83;;;15.20;;
14205;SDS011;7186;48.800;9.216;2023-05-16T10:54:38;25.77;;;16.70;;
14205;SDS011;7186;48.800;9.216;2023-05-16T10:57:04;24.77;;;15.17;;
14205;SDS011;7186;48.800;9.216;2023-05-16T10:59:31;23.63;;;16.47;;
14205;SDS011;7186;48.800;9.216;2023-05-16T11:02:03;24.40;;;15.33;;
14205;SDS011;7186;48.800;9.216;2023-05-16T11:04:45;22.50;;;14.53;;
14205;SDS011;7186;48.800;9.216;2023-05-16T11:07:10;27.20;;;17.43;;
14205;SDS011;7186;48.800;9.216;2023-05-16T11:09:35;24.23;;;15.77;;
14205;SDS011;7186;48.800;9.216;2023-05-16T11:12:00;21.10;;;13.87;;
14205;SDS011;7186;48.800;9.216;2023-05-16T11:17:12;18.80;;;13.00;;
14205;SDS011;7186;48.800;9.216;2023-05-16T11:19:48;23.13;;;14.37;;
14205;SDS011;7186;48.800;9.216;2023-05-16T11:24:55;23.47;;;13.57;;
14205;SDS011;7186;48.800;9.216;2023-05-16T11:27:24;19.00;;;11.47;;
14205;SDS011;7186;48.800;9.216;2023-05-16T11:29:51;13.33;;;9.97;;
14205;SDS011;7186;48.800;9.216;2023-05-16T11:32:19;16.50;;;10.23;;
14205;SDS011;7186;48.800;9.216;2023-05-16T11:34:46;16.70;;;10.50;;
14205;SDS011;7186;48.800;9.216;2023-05-16T11:37:12;17.67;;;10.87;;
14205;SDS011;7186;48.800;9.216;2023-05-16T11:39:37;17.40;;;10.30;;
14205;SDS011;7186;48.800;9.216;2023-05-16T11:42:02;16.00;;;10.03;;
14205;SDS011;7186;48.800;9.216;2023-05-16T11:44:28;12.57;;;8.57;;
14205;SDS011;7186;48.800;9.216;2023-05-16T11:46:53;14.70;;;9.83;;
14205;SDS011;7186;48.800;9.216;2023-05-16T11:49:18;13.60;;;10.13;;
14205;SDS011;7186;48.800;9.216;2023-05-16T11:51:44;15.63;;;10.83;;
14205;SDS011;7186;48.800;9.216;2023-05-16T11:54:09;15.97;;;10.07;;
14205;SDS011;7186;48.800;9.216;2023-05-16T11:56:35;14.07;;;9.87;;
14205;SDS011;7186;48.800;9.216;2023-05-16T11:59:01;15.70;;;9.70;;
14205;SDS011;7186;48.800;9.216;2023-05-16T12:01:33;14.60;;;9.80;;
14205;SDS011;7186;48.800;9.216;2023-05-16T12:03:58;13.60;;;9.57;;
14205;SDS011;7186;48.800;9.216;2023-05-16T12:06:23;14.00;;;8.73;;
14205;SDS011;7186;48.800;9.216;2023-05-16T12:08:50;13.30;;;9.53;;
14205;SDS011;7186;48.800;9.216;2023-05-16T12:11:17;13.17;;;8.87;;
14205;SDS011;7186;48.800;9.216;2023-05-16T12:13:42;14.73;;;9.63;;
14205;SDS011;7186;48.800;9.216;2023-05-16T12:16:08;12.47;;;8.63;;
14205;SDS011;7186;48.800;9.216;2023-05-16T12:18:34;11.70;;;8.33;;
14205;SDS011;7186;48.800;9.216;2023-05-16T12:21:02;14.10;;;8.67;;
14205;SDS011;7186;48.800;9.216;2023-05-16T12:23:28;10.73;;;7.57;;
14205;SDS011;7186;48.800;9.216;2023-05-16T12:25:55;11.80;;;7.73;;
14205;SDS011;7186;48.800;9.216;2023-05-16T12:28:21;11.37;;;6.83;;
14205;SDS011;7186;48.800;9.216;2023-05-16T12:30:46;9.93;;;6.17;;
14205;SDS011;7186;48.800;9.216;2023-05-16T12:33:15;9.10;;;6.67;;
14205;SDS011;7186;48.800;9.216;2023-05-16T12:35:42;8.10;;;6.27;;
14205;SDS011;7186;48.800;9.216;2023-05-16T12:38:08;8.63;;;6.00;;
14205;SDS011;7186;48.800;9.216;2023-05-16T12:40:37;7.40;;;5.87;;
14205;SDS011;7186;48.800;9.216;2023-05-16T12:43:03;7.37;;;5.33;;
14205;SDS011;7186;48.800;9.216;2023-05-16T12:45:28;7.53;;;5.40;;
14205;SDS011;7186;48.800;9.216;2023-05-16T12:47:54;6.43;;;5.17;;
14205;SDS011;7186;48.800;9.216;2023-05-16T12:50:19;8.93;;;5.90;;
14205;SDS011;7186;48.800;9.216;2023-05-16T12:52:49;7.13;;;5.50;;
14205;SDS011;7186;48.800;9.216;2023-05-16T12:55:15;8.70;;;5.73;;
14205;SDS011;7186;48.800;9.216;2023-05-16T12:57:41;7.70;;;5.70;;
14205;SDS011;7186;48.800;9.216;2023-05-16T13:00:07;6.67;;;4.90;;
14205;SDS011;7186;48.800;9.216;2023-05-16T13:02:32;5.83;;;5.03;;
14205;SDS011;7186;48.800;9.216;2023-05-16T13:04:57;6.53;;;4.30;;
14205;SDS011;7186;48.800;9.216;2023-05-16T13:07:23;5.57;;;4.80;;
14205;SDS011;7186;48.800;9.216;2023-05-16T13:09:48;4.83;;;4.30;;
14205;SDS011;7186;48.800;9.216;2023-05-16T13:12:15;6.53;;;4.30;;
14205;SDS011;7186;48.800;9.216;2023-05-16T13:14:40;5.67;;;4.30;;
14205;SDS011;7186;48.800;9.216;2023-05-16T13:17:06;5.10;;;3.90;;
14205;SDS011;7186;48.800;9.216;2023-05-16T13:19:31;6.37;;;4.17;;
14205;SDS011;7186;48.800;9.216;2023-05-16T13:21:57;4.90;;;4.37;;
14205;SDS011;7186;48.800;9.216;2023-05-16T13:24:22;6.60;;;3.73;;
14205;SDS011;7186;48.800;9.216;2023-05-16T13:26:47;4.63;;;3.40;;
14205;SDS011;7186;48.800;9.216;2023-05-16T13:29:12;5.50;;;3.60;;
14205;SDS011;7186;48.800;9.216;2023-05-16T13:31:38;4.70;;;3.60;;
14205;SDS011;7186;48.800;9.216;2023-05-16T13:34:03;6.33;;;3.63;;
14205;SDS011;7186;48.800;9.216;2023-05-16T13:36:29;5.93;;;3.50;;
14205;SDS011;7186;48.800;9.216;2023-05-16T13:38:54;5.13;;;3.50;;
14205;SDS011;7186;48.800;9.216;2023-05-16T13:41:20;4.30;;;2.90;;
14205;SDS011;7186;48.800;9.216;2023-05-16T13:43:46;3.90;;;3.60;;
14205;SDS011;7186;48.800;9.216;2023-05-16T13:46:11;4.13;;;3.73;;
14205;SDS011;7186;48.800;9.216;2023-05-16T13:48:36;4.40;;;3.80;;
14205;SDS011;7186;48.800;9.216;2023-05-16T13:51:02;8.03;;;3.77;;
14205;SDS011;7186;48.800;9.216;2023-05-16T13:53:27;4.13;;;3.60;;
14205;SDS011;7186;48.800;9.216;2023-05-16T13:55:52;4.53;;;3.43;;
14205;SDS011;7186;48.800;9.216;2023-05-16T13:58:18;4.60;;;3.27;;
14205;SDS011;7186;48.800;9.216;2023-05-16T14:00:43;3.63;;;3.27;;
14205;SDS011;7186;48.800;9.216;2023-05-16T14:03:09;5.57;;;3.30;;
14205;SDS011;7186;48.800;9.216;2023-05-16T14:05:34;4.27;;;3.30;;
14205;SDS011;7186;48.800;9.216;2023-05-16T14:07:59;4.37;;;3.53;;
14205;SDS011;7186;48.800;9.216;2023-05-16T14:10:25;4.40;;;3.30;;
14205;SDS011;7186;48.800;9.216;2023-05-16T14:12:50;4.80;;;3.37;;
14205;SDS011;7186;48.800;9.216;2023-05-16T14:15:15;3.17;;;2.87;;
14205;SDS011;7186;48.800;9.216;2023-05-16T14:17:41;5.10;;;3.40;;
14205;SDS011;7186;48.800;9.216;2023-05-16T14:20:06;3.63;;;3.27;;
14205;SDS011;7186;48.800;9.216;2023-05-16T14:22:34;4.37;;;3.57;;
14205;SDS011;7186;48.800;9.216;2023-05-16T14:25:00;6.37;;;3.80;;
14205;SDS011;7186;48.800;9.216;2023-05-16T14:27:25;7.17;;;3.90;;
14205;SDS011;7186;48.800;9.216;2023-05-16T14:29:51;4.83;;;3.73;;
14205;SDS011;7186;48.800;9.216;2023-05-16T14:32:16;3.83;;;3.53;;
14205;SDS011;7186;48.800;9.216;2023-05-16T14:34:41;5.07;;;3.53;;
14205;SDS011;7186;48.800;9.216;2023-05-16T14:37:07;4.13;;;3.73;;
14205;SDS011;7186;48.800;9.216;2023-05-16T14:39:34;4.67;;;3.80;;
14205;SDS011;7186;48.800;9.216;2023-05-16T14:42:00;4.30;;;3.70;;
14205;SDS011;7186;48.800;9.216;2023-05-16T14:44:27;7.93;;;3.07;;
14205;SDS011;7186;48.800;9.216;2023-05-16T14:46:52;5.07;;;3.40;;
14205;SDS011;7186;48.800;9.216;2023-05-16T14:49:17;3.37;;;3.07;;
14205;SDS011;7186;48.800;9.216;2023-05-16T14:51:42;8.03;;;3.90;;